Time;durP1;ratioP1;P1;durP2;ratioP2;P2;SDS_P1;SDS_P2;PMS_P1;PMS_P2;Temp;Humidity;BMP_temperature;BMP_pressure;BME280_temperature;BME280_humidity;BME280_pressure;Samples;Min_cycle;Max_cycle;Signal;HPM_P1;HPM_P2
2024/03/21 00:02:10;;;;;;;0.40;0.40;;;;;;;;;;5097032;28;20476;-67
2024/03/21 00:04:35;;;;;;;0.93;0.93;;;;;;;;;;5095521;28;20257;-67
2024/03/21 00:07:02;;;;;;;0.20;0.20;;;;;;;;;;5095534;28;20286;-67
2024/03/21 00:09:27;;;;;;;0.68;0.68;;;;;;;;;;5095496;28;20453;-67
2024/03/21 00:11:52;;;;;;;0.73;0.43;;;;;;;;;;5095441;28;20024;-67
2024/03/21 00:14:17;;;;;;;1.60;0.60;;;;;;;;;;5095456;28;20024;-67
2024/03/21 00:16:42;;;;;;;1.40;0.60;;;;;;;;;;5096393;28;20075;-67
2024/03/21 00:19:09;;;;;;;6.67;0.67;;;;;;;;;;5095199;28;20016;-67
2024/03/21 00:21:34;;;;;;;0.35;0.35;;;;;;;;;;5096362;28;20108;-67
2024/03/21 00:23:59;;;;;;;0.20;0.20;;;;;;;;;;5095221;28;20051;-67
2024/03/21 00:26:25;;;;;;;0.20;0.20;;;;;;;;;;5098411;28;20031;-67
2024/03/21 00:28:50;;;;;;;0.30;0.30;;;;;;;;;;5114573;28;20409;-67
2024/03/21 00:31:16;;;;;;;0.27;0.27;;;;;;;;;;5114671;28;20030;-66
2024/03/21 00:33:47;;;;;;;0.10;0.10;;;;;;;;;;5111279;28;20256;-67
2024/03/21 00:36:12;;;;;;;0.70;0.70;;;;;;;;;;5097602;28;20483;-67
2024/03/21 00:38:37;;;;;;;0.40;0.40;;;;;;;;;;5112773;28;20036;-67
2024/03/21 00:41:04;;;;;;;0.23;0.20;;;;;;;;;;5095117;28;20249;-67
2024/03/21 00:43:30;;;;;;;0.47;0.47;;;;;;;;;;5111532;28;20259;-67
2024/03/21 00:45:55;;;;;;;0.10;0.10;;;;;;;;;;5097579;28;20030;-67
2024/03/21 00:48:20;;;;;;;2.47;0.52;;;;;;;;;;5114463;28;20126;-68
2024/03/21 00:50:46;;;;;;;2.27;1.17;;;;;;;;;;5112454;28;20024;-67
2024/03/21 00:53:11;;;;;;;0.37;0.37;;;;;;;;;;5094518;28;20253;-67
2024/03/21 00:55:36;;;;;;;0.50;0.50;;;;;;;;;;5076590;28;20034;-67
2024/03/21 00:58:01;;;;;;;0.10;0.10;;;;;;;;;;5103676;28;20072;-67
2024/03/21 01:00:26;;;;;;;0.43;0.43;;;;;;;;;;5102148;28;20020;-67
2024/03/21 01:02:52;;;;;;;0.10;0.10;;;;;;;;;;5094527;28;20257;-66
2024/03/21 01:05:18;;;;;;;0.77;0.73;;;;;;;;;;5112417;28;20024;-66
2024/03/21 01:07:46;;;;;;;0.55;0.45;;;;;;;;;;5112935;28;20016;-66
2024/03/21 01:10:11;;;;;;;0.10;0.10;;;;;;;;;;5106429;28;20023;-66
2024/03/21 01:12:36;;;;;;;0.53;0.43;;;;;;;;;;5094521;28;20028;-66
2024/03/21 01:15:01;;;;;;;0.20;0.20;;;;;;;;;;5094223;28;20271;-66
2024/03/21 01:17:27;;;;;;;0.40;0.40;;;;;;;;;;5095295;28;20050;-66
2024/03/21 01:19:52;;;;;;;1.52;1.02;;;;;;;;;;5094092;28;20059;-66
2024/03/21 01:22:18;;;;;;;0.20;0.20;;;;;;;;;;5099570;28;20029;-66
2024/03/21 01:24:46;;;;;;;0.13;0.13;;;;;;;;;;5113347;28;20271;-66
2024/03/21 01:27:11;;;;;;;0.15;0.15;;;;;;;;;;5097846;28;20031;-66
2024/03/21 01:29:36;;;;;;;1.60;1.13;;;;;;;;;;5098113;28;20460;-66
2024/03/21 01:32:01;;;;;;;0.50;0.37;;;;;;;;;;5094093;28;20297;-66
2024/03/21 01:34:27;;;;;;;0.10;0.10;;;;;;;;;;5099292;28;20676;-66
2024/03/21 01:36:53;;;;;;;0.63;0.53;;;;;;;;;;5097802;28;20032;-66
2024/03/21 01:39:19;;;;;;;0.30;0.30;;;;;;;;;;5096359;28;20027;-66
2024/03/21 01:41:44;;;;;;;0.55;0.50;;;;;;;;;;5100126;28;20028;-66
2024/03/21 01:44:16;;;;;;;0.13;0.13;;;;;;;;;;5110426;28;20523;-66
2024/03/21 01:46:42;;;;;;;0.20;0.20;;;;;;;;;;5114075;28;20375;-66
2024/03/21 01:49:07;;;;;;;0.40;0.40;;;;;;;;;;5113862;28;20043;-66
2024/03/21 01:51:33;;;;;;;2.05;1.05;;;;;;;;;;5111263;28;20023;-66
2024/03/21 01:53:58;;;;;;;0.32;0.32;;;;;;;;;;5100255;28;20031;-66
2024/03/21 01:56:23;;;;;;;0.20;0.20;;;;;;;;;;5093614;28;20024;-66
2024/03/21 01:58:49;;;;;;;0.43;0.43;;;;;;;;;;5101713;28;20024;-66
2024/03/21 02:01:20;;;;;;;0.30;0.30;;;;;;;;;;5107133;28;20383;-66
2024/03/21 02:06:21;;;;;;;0.25;0.25;;;;;;;;;;4822245;23;20057;-67
2024/03/21 02:08:47;;;;;;;0.10;0.10;;;;;;;;;;5013868;28;20037;-67
2024/03/21 02:11:12;;;;;;;0.25;0.25;;;;;;;;;;5013566;28;20598;-66
2024/03/21 02:13:38;;;;;;;0.20;0.20;;;;;;;;;;5013854;28;20053;-66
2024/03/21 02:16:03;;;;;;;0.57;0.57;;;;;;;;;;5026814;28;20075;-66
2024/03/21 02:18:28;;;;;;;0.57;0.57;;;;;;;;;;5033374;28;20024;-65
2024/03/21 02:20:54;;;;;;;0.40;0.40;;;;;;;;;;5033483;28;20732;-66
2024/03/21 02:23:19;;;;;;;0.23;0.23;;;;;;;;;;5033263;28;20061;-66
2024/03/21 02:25:44;;;;;;;0.10;0.10;;;;;;;;;;5033077;28;20028;-66
2024/03/21 02:28:09;;;;;;;0.10;0.10;;;;;;;;;;5033237;28;20021;-66
2024/03/21 02:30:35;;;;;;;0.30;0.30;;;;;;;;;;5031441;28;20021;-66
2024/03/21 02:33:00;;;;;;;0.03;0.03;;;;;;;;;;5031519;28;20029;-66
2024/03/21 02:35:25;;;;;;;0.63;0.63;;;;;;;;;;5033077;28;20032;-66
2024/03/21 02:37:50;;;;;;;0.10;0.10;;;;;;;;;;5033038;28;20500;-66
2024/03/21 02:40:16;;;;;;;0.20;0.20;;;;;;;;;;5026047;28;20029;-66
2024/03/21 02:42:41;;;;;;;0.13;0.13;;;;;;;;;;5017286;28;20076;-66
2024/03/21 02:45:06;;;;;;;0.10;0.08;;;;;;;;;;5017455;28;20377;-66
2024/03/21 02:47:31;;;;;;;0.10;0.10;;;;;;;;;;5017163;28;20026;-66
2024/03/21 02:49:57;;;;;;;0.10;0.10;;;;;;;;;;5017123;28;20021;-66
2024/03/21 02:52:22;;;;;;;0.10;0.10;;;;;;;;;;5017290;28;20040;-66
2024/03/21 02:54:47;;;;;;;0.10;0.10;;;;;;;;;;5022606;28;20104;-66
2024/03/21 02:57:13;;;;;;;0.53;0.43;;;;;;;;;;5036745;28;20104;-66
2024/03/21 02:59:38;;;;;;;0.60;0.60;;;;;;;;;;5036773;28;20025;-66
2024/03/21 03:02:03;;;;;;;0.75;0.75;;;;;;;;;;5036904;28;20253;-66
2024/03/21 03:04:29;;;;;;;0.22;0.22;;;;;;;;;;5030129;28;20930;-66
2024/03/21 03:06:54;;;;;;;0.30;0.30;;;;;;;;;;4997125;28;20033;-66
2024/03/21 03:09:19;;;;;;;0.13;0.13;;;;;;;;;;4997257;28;20046;-66
2024/03/21 03:11:45;;;;;;;0.10;0.10;;;;;;;;;;4997130;28;20021;-66
2024/03/21 03:14:10;;;;;;;0.07;0.07;;;;;;;;;;4997137;28;20022;-66
2024/03/21 03:16:35;;;;;;;0.13;0.13;;;;;;;;;;4997103;28;20018;-66
2024/03/21 03:19:01;;;;;;;0.10;0.10;;;;;;;;;;4997736;28;20307;-66
2024/03/21 03:21:26;;;;;;;0.30;0.30;;;;;;;;;;5016819;28;20381;-66
2024/03/21 03:23:52;;;;;;;0.10;0.10;;;;;;;;;;5016657;28;20033;-67
2024/03/21 03:26:17;;;;;;;0.00;0.00;;;;;;;;;;5016563;28;20509;-67
2024/03/21 03:28:42;;;;;;;2.60;1.03;;;;;;;;;;5016467;28;20022;-67
2024/03/21 03:31:07;;;;;;;0.10;0.10;;;;;;;;;;4998515;28;20049;-67
2024/03/21 03:36:16;;;;;;;0.70;0.55;;;;;;;;;;4997050;28;20032;-67
2024/03/21 03:38:41;;;;;;;0.77;0.77;;;;;;;;;;4996690;28;20105;-67
2024/03/21 03:41:06;;;;;;;0.30;0.30;;;;;;;;;;4996569;28;20260;-67
2024/03/21 03:43:32;;;;;;;0.13;0.13;;;;;;;;;;4996627;28;20030;-67
2024/03/21 03:45:57;;;;;;;0.20;0.20;;;;;;;;;;5014757;28;20626;-67
2024/03/21 03:48:22;;;;;;;0.10;0.10;;;;;;;;;;5016157;28;20488;-67
2024/03/21 03:50:47;;;;;;;0.47;0.47;;;;;;;;;;5015525;28;20018;-67
2024/03/21 03:53:13;;;;;;;0.83;0.53;;;;;;;;;;5015476;28;20064;-67
2024/03/21 03:55:38;;;;;;;0.30;0.30;;;;;;;;;;4996388;28;20291;-67
2024/03/21 03:58:03;;;;;;;0.37;0.37;;;;;;;;;;4996330;28;20423;-67
2024/03/21 04:00:28;;;;;;;0.87;0.87;;;;;;;;;;4996560;28;20026;-67
2024/03/21 04:02:53;;;;;;;0.67;0.50;;;;;;;;;;4996511;28;20294;-67
2024/03/21 04:05:19;;;;;;;0.97;0.77;;;;;;;;;;5012936;28;20418;-67
2024/03/21 04:07:45;;;;;;;0.23;0.23;;;;;;;;;;5015680;28;20026;-67
2024/03/21 04:10:10;;;;;;;0.20;0.20;;;;;;;;;;5015644;28;20286;-67
2024/03/21 04:12:35;;;;;;;0.25;0.25;;;;;;;;;;5015653;28;20018;-67
2024/03/21 04:15:00;;;;;;;0.17;0.17;;;;;;;;;;5015671;28;20068;-67
2024/03/21 04:17:26;;;;;;;0.10;0.10;;;;;;;;;;5015523;28;20389;-67
2024/03/21 04:19:51;;;;;;;1.23;0.53;;;;;;;;;;5002954;28;20465;-67
2024/03/21 04:22:16;;;;;;;0.22;0.22;;;;;;;;;;4995877;28;20029;-67
2024/03/21 04:24:42;;;;;;;0.20;0.20;;;;;;;;;;4995875;28;20022;-67
2024/03/21 04:27:08;;;;;;;0.28;0.28;;;;;;;;;;4995653;28;20629;-67
2024/03/21 04:29:33;;;;;;;0.00;0.00;;;;;;;;;;4995690;28;20037;-67
2024/03/21 04:31:58;;;;;;;0.10;0.10;;;;;;;;;;4995698;28;20064;-67
2024/03/21 04:34:24;;;;;;;0.10;0.10;;;;;;;;;;5005976;28;20301;-67
2024/03/21 04:36:49;;;;;;;0.10;0.10;;;;;;;;;;5015132;28;20341;-67
2024/03/21 04:39:15;;;;;;;0.10;0.10;;;;;;;;;;5015118;28;20080;-67
2024/03/21 04:41:40;;;;;;;0.10;0.10;;;;;;;;;;5015067;28;20686;-67
2024/03/21 04:44:05;;;;;;;0.20;0.20;;;;;;;;;;5015388;28;20029;-67
2024/03/21 04:46:30;;;;;;;0.23;0.23;;;;;;;;;;5015143;28;20832;-67
2024/03/21 04:48:55;;;;;;;0.30;0.30;;;;;;;;;;5005884;28;20093;-67
2024/03/21 04:51:27;;;;;;;0.20;0.20;;;;;;;;;;4995550;28;20248;-67
2024/03/21 04:53:53;;;;;;;0.10;0.10;;;;;;;;;;4995307;28;20038;-67
2024/03/21 04:56:18;;;;;;;0.20;0.20;;;;;;;;;;4995237;28;20030;-67
2024/03/21 04:58:43;;;;;;;0.20;0.20;;;;;;;;;;4995412;28;20310;-67
2024/03/21 05:01:09;;;;;;;0.40;0.40;;;;;;;;;;4995351;28;20029;-67
2024/03/21 05:03:36;;;;;;;0.85;0.43;;;;;;;;;;5002100;28;20266;-67
2024/03/21 05:06:01;;;;;;;0.10;0.10;;;;;;;;;;5015165;28;20116;-67
2024/03/21 05:08:26;;;;;;;0.00;0.00;;;;;;;;;;5014591;28;20047;-67
2024/03/21 05:10:52;;;;;;;0.00;0.00;;;;;;;;;;5014810;28;20247;-67
2024/03/21 05:13:17;;;;;;;0.20;0.20;;;;;;;;;;5014520;28;20362;-67
2024/03/21 05:15:48;;;;;;;0.00;0.00;;;;;;;;;;5014442;28;20036;-74
2024/03/21 05:18:13;;;;;;;0.13;0.13;;;;;;;;;;5008427;28;20026;-74
2024/03/21 05:20:38;;;;;;;0.33;0.33;;;;;;;;;;4996756;28;20267;-75
2024/03/21 05:23:04;;;;;;;0.30;0.30;;;;;;;;;;5014406;28;20048;-75
2024/03/21 05:25:29;;;;;;;0.30;0.30;;;;;;;;;;4996711;28;20494;-75
2024/03/21 05:27:54;;;;;;;0.20;0.20;;;;;;;;;;5014149;28;20080;-75
2024/03/21 05:30:19;;;;;;;0.00;0.00;;;;;;;;;;5014235;28;20046;-65
2024/03/21 05:32:44;;;;;;;0.60;0.60;;;;;;;;;;5010953;28;20031;-65
2024/03/21 05:35:10;;;;;;;0.17;0.13;;;;;;;;;;5004687;28;20032;-75
2024/03/21 05:37:35;;;;;;;0.10;0.10;;;;;;;;;;5012325;28;20026;-76
2024/03/21 05:40:00;;;;;;;0.10;0.10;;;;;;;;;;4977950;28;20394;-64
2024/03/21 05:42:25;;;;;;;0.30;0.30;;;;;;;;;;4994487;28;20022;-66
2024/03/21 05:44:50;;;;;;;0.10;0.10;;;;;;;;;;4994359;28;20723;-66
2024/03/21 05:47:23;;;;;;;0.10;0.10;;;;;;;;;;4993871;28;20038;-66
2024/03/21 05:49:48;;;;;;;0.00;0.00;;;;;;;;;;4994568;28;20489;-66
2024/03/21 05:52:14;;;;;;;0.30;0.22;;;;;;;;;;4994538;28;20056;-66
2024/03/21 05:54:39;;;;;;;0.95;0.95;;;;;;;;;;4994300;28;20026;-66
2024/03/21 05:57:04;;;;;;;1.83;0.80;;;;;;;;;;4993276;28;20023;-66
2024/03/21 05:59:29;;;;;;;0.20;0.20;;;;;;;;;;4994093;28;20257;-66
2024/03/21 06:01:55;;;;;;;0.73;0.73;;;;;;;;;;4993997;28;20122;-66
2024/03/21 06:04:21;;;;;;;1.10;0.57;;;;;;;;;;4994044;28;20019;-66
2024/03/21 06:06:46;;;;;;;0.63;0.63;;;;;;;;;;4994643;28;20652;-66
2024/03/21 06:09:21;;;;;;;0.32;0.32;;;;;;;;;;4994054;28;20113;-66
2024/03/21 06:11:46;;;;;;;0.40;0.30;;;;;;;;;;4994255;28;20504;-66
2024/03/21 06:14:12;;;;;;;0.30;0.30;;;;;;;;;;4993703;28;20026;-66
2024/03/21 06:16:37;;;;;;;0.30;0.30;;;;;;;;;;4993986;28;20026;-66
2024/03/21 06:19:03;;;;;;;0.30;0.30;;;;;;;;;;4994025;28;20022;-66
2024/03/21 06:21:28;;;;;;;0.40;0.40;;;;;;;;;;4994014;28;20527;-66
2024/03/21 06:23:53;;;;;;;1.00;0.87;;;;;;;;;;4993309;28;20022;-66
2024/03/21 06:26:18;;;;;;;0.23;0.23;;;;;;;;;;4991595;28;20042;-66
2024/03/21 06:28:44;;;;;;;0.13;0.13;;;;;;;;;;4991599;28;20022;-66
2024/03/21 06:31:09;;;;;;;0.20;0.20;;;;;;;;;;4988101;28;20114;-66
2024/03/21 06:33:34;;;;;;;0.20;0.20;;;;;;;;;;4993320;28;20025;-66
2024/03/21 06:35:59;;;;;;;0.63;0.63;;;;;;;;;;4993311;28;20064;-66
2024/03/21 06:38:24;;;;;;;0.20;0.20;;;;;;;;;;4993645;28;20390;-66
2024/03/21 06:40:50;;;;;;;0.70;0.70;;;;;;;;;;4993384;28;20038;-66
2024/03/21 06:43:15;;;;;;;0.10;0.10;;;;;;;;;;4993544;28;20098;-66
2024/03/21 06:45:40;;;;;;;0.53;0.40;;;;;;;;;;4993822;28;20255;-66
2024/03/21 06:48:05;;;;;;;0.80;0.57;;;;;;;;;;4993712;28;20263;-66
2024/03/21 06:50:31;;;;;;;2.42;1.42;;;;;;;;;;4993500;28;20089;-66
2024/03/21 06:52:57;;;;;;;0.63;0.63;;;;;;;;;;4993465;28;20099;-64
2024/03/21 06:55:22;;;;;;;0.50;0.50;;;;;;;;;;4993748;28;20102;-64
2024/03/21 06:57:49;;;;;;;0.22;0.22;;;;;;;;;;4993505;28;20378;-64
2024/03/21 07:00:16;;;;;;;0.73;0.73;;;;;;;;;;4993642;28;20030;-64
2024/03/21 07:02:41;;;;;;;0.13;0.13;;;;;;;;;;4976094;28;20022;-64
2024/03/21 07:05:07;;;;;;;1.27;1.17;;;;;;;;;;4993811;28;20038;-64
2024/03/21 07:07:32;;;;;;;0.40;0.40;;;;;;;;;;4993324;28;20288;-64
2024/03/21 07:09:57;;;;;;;1.13;1.02;;;;;;;;;;4993261;28;20098;-64
2024/03/21 07:12:23;;;;;;;0.60;0.60;;;;;;;;;;4993357;28;20026;-64
2024/03/21 07:14:48;;;;;;;21.87;2.30;;;;;;;;;;4986917;28;20085;-64
2024/03/21 07:17:13;;;;;;;0.40;0.40;;;;;;;;;;4976300;28;20027;-64
2024/03/21 07:19:39;;;;;;;1.88;0.70;;;;;;;;;;4992430;28;20663;-64
2024/03/21 07:22:04;;;;;;;0.97;0.87;;;;;;;;;;4988611;28;20517;-64
2024/03/21 07:24:30;;;;;;;1.37;1.27;;;;;;;;;;4979758;28;20029;-65
2024/03/21 07:26:55;;;;;;;0.85;0.80;;;;;;;;;;4987856;28;20023;-65
2024/03/21 07:29:20;;;;;;;3.20;1.15;;;;;;;;;;4986749;28;20022;-65
2024/03/21 07:31:46;;;;;;;0.40;0.40;;;;;;;;;;4985678;28;20029;-64
2024/03/21 07:34:11;;;;;;;1.10;1.00;;;;;;;;;;4984732;28;20624;-64
2024/03/21 07:36:37;;;;;;;3.20;2.17;;;;;;;;;;4989269;28;20023;-65
2024/03/21 07:39:02;;;;;;;0.77;0.73;;;;;;;;;;4988366;28;20061;-65
2024/03/21 07:41:27;;;;;;;1.95;1.20;;;;;;;;;;4985527;28;20050;-65
2024/03/21 07:43:52;;;;;;;0.80;0.80;;;;;;;;;;4985104;28;20033;-65
2024/03/21 07:46:18;;;;;;;3.07;2.50;;;;;;;;;;4988677;28;20382;-65
2024/03/21 07:48:44;;;;;;;1.48;1.38;;;;;;;;;;4988639;28;20105;-65
2024/03/21 07:51:09;;;;;;;1.20;0.90;;;;;;;;;;4987819;28;20023;-65
2024/03/21 07:53:34;;;;;;;0.97;0.90;;;;;;;;;;4984636;28;20062;-66
2024/03/21 07:55:59;;;;;;;1.43;1.27;;;;;;;;;;4986429;28;20247;-64
2024/03/21 07:58:24;;;;;;;1.67;0.90;;;;;;;;;;4987978;28;20027;-66
2024/03/21 08:00:50;;;;;;;2.57;2.07;;;;;;;;;;4990093;28;20378;-63
2024/03/21 08:03:15;;;;;;;1.40;1.07;;;;;;;;;;4987999;28;20248;-63
2024/03/21 08:05:40;;;;;;;1.25;0.98;;;;;;;;;;5000456;28;20520;-65
2024/03/21 08:08:05;;;;;;;2.00;1.80;;;;;;;;;;5014833;28;20092;-65
2024/03/21 08:10:31;;;;;;;0.73;0.73;;;;;;;;;;5015223;28;20018;-65
2024/03/21 08:12:56;;;;;;;1.80;1.47;;;;;;;;;;5014848;28;20245;-65
2024/03/21 08:15:21;;;;;;;2.30;1.70;;;;;;;;;;5014881;28;20030;-65
2024/03/21 08:17:46;;;;;;;2.50;1.10;;;;;;;;;;5014617;28;20018;-65
2024/03/21 08:20:11;;;;;;;1.83;1.43;;;;;;;;;;5014705;28;20413;-65
2024/03/21 08:22:36;;;;;;;1.27;0.90;;;;;;;;;;5014880;28;20021;-65
2024/03/21 08:25:02;;;;;;;1.13;1.03;;;;;;;;;;5014729;28;20247;-65
2024/03/21 08:27:28;;;;;;;0.77;0.77;;;;;;;;;;5014850;28;20025;-65
2024/03/21 08:29:54;;;;;;;1.75;1.45;;;;;;;;;;5014325;28;20612;-65
2024/03/21 08:32:21;;;;;;;1.75;1.25;;;;;;;;;;5011734;28;20114;-63
2024/03/21 08:34:46;;;;;;;2.30;1.48;;;;;;;;;;5014430;28;20524;-63
2024/03/21 08:37:12;;;;;;;2.22;1.88;;;;;;;;;;5014652;28;20022;-63
2024/03/21 08:39:37;;;;;;;1.73;1.40;;;;;;;;;;5011423;28;20052;-64
2024/03/21 08:42:02;;;;;;;1.53;1.30;;;;;;;;;;5014302;28;20022;-63
2024/03/21 08:44:27;;;;;;;1.33;1.07;;;;;;;;;;5014491;28;20017;-63
2024/03/21 08:46:52;;;;;;;1.45;1.27;;;;;;;;;;5014206;28;20425;-63
2024/03/21 08:49:26;;;;;;;1.50;1.40;;;;;;;;;;5012295;28;20042;-63
2024/03/21 08:51:51;;;;;;;1.25;1.15;;;;;;;;;;5014282;28;20037;-66
2024/03/21 08:54:16;;;;;;;2.17;1.73;;;;;;;;;;5014264;28;20010;-65
2024/03/21 08:56:42;;;;;;;1.67;1.40;;;;;;;;;;5014082;28;20359;-63
2024/03/21 08:59:07;;;;;;;3.43;1.93;;;;;;;;;;5014023;28;20473;-63
2024/03/21 09:01:32;;;;;;;2.35;1.52;;;;;;;;;;5014259;28;20719;-63
2024/03/21 09:03:57;;;;;;;2.10;1.67;;;;;;;;;;5014013;28;20014;-63
2024/03/21 09:06:30;;;;;;;2.67;1.77;;;;;;;;;;5010485;28;20590;-63
2024/03/21 09:08:56;;;;;;;1.75;1.20;;;;;;;;;;5009141;28;20405;-63
2024/03/21 09:11:21;;;;;;;4.97;1.80;;;;;;;;;;5013745;28;20017;-63
2024/03/21 09:13:46;;;;;;;2.33;1.77;;;;;;;;;;5011137;28;20022;-63
2024/03/21 09:16:12;;;;;;;2.25;1.90;;;;;;;;;;5013894;28;20013;-63
2024/03/21 09:18:37;;;;;;;2.13;1.90;;;;;;;;;;5013155;28;20103;-63
2024/03/21 09:21:06;;;;;;;2.10;1.50;;;;;;;;;;5008834;28;20017;-63
2024/03/21 09:23:31;;;;;;;3.67;2.00;;;;;;;;;;5013910;28;20018;-63
2024/03/21 09:26:00;;;;;;;4.60;2.67;;;;;;;;;;5013344;28;20028;-63
2024/03/21 09:28:25;;;;;;;2.20;1.70;;;;;;;;;;5013728;28;20025;-63
2024/03/21 09:30:50;;;;;;;2.83;2.47;;;;;;;;;;5008121;28;20049;-63
2024/03/21 09:33:16;;;;;;;3.42;2.58;;;;;;;;;;5001347;28;20076;-63
2024/03/21 09:35:41;;;;;;;3.27;2.43;;;;;;;;;;5010055;28;20110;-63
2024/03/21 09:38:06;;;;;;;2.67;2.00;;;;;;;;;;4998941;28;20018;-63
2024/03/21 09:40:31;;;;;;;3.87;2.60;;;;;;;;;;5003273;28;20806;-63
2024/03/21 09:42:57;;;;;;;2.88;2.40;;;;;;;;;;5012124;28;20030;-63
2024/03/21 09:45:23;;;;;;;3.42;2.53;;;;;;;;;;4997471;28;20105;-63
2024/03/21 09:47:48;;;;;;;5.40;2.72;;;;;;;;;;5009837;28;20029;-63
2024/03/21 09:50:14;;;;;;;5.50;2.87;;;;;;;;;;4998914;28;20022;-63
2024/03/21 09:52:39;;;;;;;4.27;3.07;;;;;;;;;;5007744;28;20232;-63
2024/03/21 09:55:07;;;;;;;7.07;3.30;;;;;;;;;;5011077;28;20718;-63
2024/03/21 09:57:33;;;;;;;2.63;2.30;;;;;;;;;;5008319;28;20033;-63
2024/03/21 09:59:58;;;;;;;2.67;1.87;;;;;;;;;;5005340;28;20022;-63
2024/03/21 10:02:25;;;;;;;4.40;3.10;;;;;;;;;;5007771;28;20251;-63
2024/03/21 10:04:50;;;;;;;2.78;2.35;;;;;;;;;;5010076;28;20021;-63
2024/03/21 10:07:23;;;;;;;5.40;2.90;;;;;;;;;;5003784;28;20105;-63
2024/03/21 10:09:54;;;;;;;3.88;2.38;;;;;;;;;;5012784;28;20383;-63
2024/03/21 10:12:20;;;;;;;3.40;2.30;;;;;;;;;;5005519;28;20010;-65
2024/03/21 10:14:46;;;;;;;4.03;3.08;;;;;;;;;;5005049;28;20091;-63
2024/03/21 10:17:11;;;;;;;4.53;2.83;;;;;;;;;;5003242;28;20490;-62
2024/03/21 10:19:36;;;;;;;5.03;2.10;;;;;;;;;;5012765;28;20049;-62
2024/03/21 10:22:02;;;;;;;3.90;2.87;;;;;;;;;;5012581;28;20251;-62
2024/03/21 10:24:27;;;;;;;2.35;2.05;;;;;;;;;;5012933;28;20029;-65
2024/03/21 10:26:52;;;;;;;5.13;3.23;;;;;;;;;;5012587;28;20081;-64
2024/03/21 10:29:18;;;;;;;2.77;2.30;;;;;;;;;;5012556;28;20097;-67
2024/03/21 10:31:44;;;;;;;3.10;2.28;;;;;;;;;;5012413;28;20101;-67
2024/03/21 10:34:10;;;;;;;3.00;2.30;;;;;;;;;;5012406;28;20018;-67
2024/03/21 10:36:35;;;;;;;5.90;2.90;;;;;;;;;;5010015;28;20026;-66
2024/03/21 10:39:01;;;;;;;2.87;2.47;;;;;;;;;;5011513;28;20145;-65
2024/03/21 10:41:28;;;;;;;2.50;1.90;;;;;;;;;;5013450;28;20021;-65
2024/03/21 10:43:57;;;;;;;7.63;3.33;;;;;;;;;;5012609;28;20430;-68
2024/03/21 10:46:29;;;;;;;2.80;1.88;;;;;;;;;;5011039;28;20021;-65
2024/03/21 10:48:56;;;;;;;3.10;2.80;;;;;;;;;;5011654;28;20080;-66
2024/03/21 10:51:21;;;;;;;1.90;1.73;;;;;;;;;;5011642;28;20398;-65
2024/03/21 10:54:00;;;;;;;2.58;1.95;;;;;;;;;;5012870;28;20018;-65
2024/03/21 10:56:38;;;;;;;3.42;2.42;;;;;;;;;;5013079;28;20029;-65
2024/03/21 10:59:03;;;;;;;2.95;2.47;;;;;;;;;;5013363;28;20094;-67
2024/03/21 11:01:39;;;;;;;2.28;1.90;;;;;;;;;;5014139;28;20014;-67
2024/03/21 11:04:05;;;;;;;2.72;2.22;;;;;;;;;;5016979;28;20030;-67
2024/03/21 11:06:31;;;;;;;5.18;2.63;;;;;;;;;;5006259;28;20517;-68
2024/03/21 11:08:56;;;;;;;5.05;2.45;;;;;;;;;;4997425;28;20023;-68
2024/03/21 11:11:21;;;;;;;3.17;2.00;;;;;;;;;;4995834;28;20019;-67
2024/03/21 11:13:47;;;;;;;1.67;1.58;;;;;;;;;;4996772;28;20018;-67
2024/03/21 11:16:12;;;;;;;1.08;1.02;;;;;;;;;;4996979;28;20378;-67
2024/03/21 11:18:38;;;;;;;1.48;1.20;;;;;;;;;;4997232;28;20030;-67
2024/03/21 11:21:05;;;;;;;2.35;2.00;;;;;;;;;;4996885;28;20033;-67
2024/03/21 11:23:30;;;;;;;3.80;1.38;;;;;;;;;;4996995;28;20019;-67
2024/03/21 11:25:55;;;;;;;2.15;1.60;;;;;;;;;;4996770;28;20026;-67
2024/03/21 11:28:21;;;;;;;3.22;2.35;;;;;;;;;;4997052;28;20105;-67
2024/03/21 11:30:46;;;;;;;1.80;1.50;;;;;;;;;;4996810;28;20065;-67
2024/03/21 11:33:11;;;;;;;2.43;2.20;;;;;;;;;;4996824;28;20034;-67
2024/03/21 11:35:40;;;;;;;3.05;1.90;;;;;;;;;;4996935;28;20042;-67
2024/03/21 11:38:09;;;;;;;2.65;2.28;;;;;;;;;;4996551;28;20022;-67
2024/03/21 11:40:35;;;;;;;1.05;0.95;;;;;;;;;;4996616;28;20041;-67
2024/03/21 11:43:07;;;;;;;3.25;2.40;;;;;;;;;;4996619;28;20026;-67
2024/03/21 11:45:32;;;;;;;;;;;;;;;;;;4997086;28;20379;-67
2024/03/21 11:48:11;;;;;;;4.53;2.25;;;;;;;;;;4996465;28;19910;-67
2024/03/21 11:50:38;;;;;;;3.00;1.88;;;;;;;;;;4996694;28;20129;-67
2024/03/21 11:53:04;;;;;;;1.98;1.40;;;;;;;;;;4996704;28;20015;-67
2024/03/21 11:55:29;;;;;;;2.60;1.88;;;;;;;;;;4996442;28;20152;-67
2024/03/21 11:57:55;;;;;;;2.73;1.80;;;;;;;;;;4996373;28;20494;-67
2024/03/21 12:00:20;;;;;;;4.63;3.08;;;;;;;;;;4996222;28;20759;-67
2024/03/21 12:02:46;;;;;;;3.08;2.25;;;;;;;;;;4996247;28;20101;-67
2024/03/21 12:05:11;;;;;;;2.53;2.00;;;;;;;;;;4996408;28;20022;-67
2024/03/21 12:07:41;;;;;;;4.57;2.30;;;;;;;;;;4996750;28;20129;-67
2024/03/21 12:10:07;;;;;;;9.60;2.08;;;;;;;;;;4996070;28;20018;-67
2024/03/21 12:12:32;;;;;;;5.07;2.47;;;;;;;;;;4995700;28;20025;-67
2024/03/21 12:14:58;;;;;;;7.40;2.00;;;;;;;;;;4996044;28;20532;-67
2024/03/21 12:17:23;;;;;;;3.37;2.53;;;;;;;;;;4996003;28;20030;-67
2024/03/21 12:19:48;;;;;;;6.07;2.70;;;;;;;;;;4995994;28;20045;-67
2024/03/21 12:22:13;;;;;;;4.83;2.13;;;;;;;;;;4995930;28;20389;-67
2024/03/21 12:24:39;;;;;;;2.60;1.70;;;;;;;;;;4995954;28;20022;-67
2024/03/21 12:27:05;;;;;;;4.13;2.10;;;;;;;;;;4996017;28;20565;-67
2024/03/21 12:29:30;;;;;;;2.17;1.37;;;;;;;;;;4995868;28;20050;-67
2024/03/21 12:31:55;;;;;;;4.53;1.80;;;;;;;;;;4995740;28;20144;-68
2024/03/21 12:34:21;;;;;;;2.47;2.05;;;;;;;;;;4995587;28;20019;-67
2024/03/21 12:36:46;;;;;;;2.97;1.93;;;;;;;;;;4995639;28;20026;-68
2024/03/21 12:39:14;;;;;;;4.45;2.47;;;;;;;;;;4995847;28;20251;-67
2024/03/21 12:41:40;;;;;;;4.60;2.80;;;;;;;;;;4995592;28;20022;-67
2024/03/21 12:44:05;;;;;;;4.50;2.75;;;;;;;;;;4995670;28;20076;-64
2024/03/21 12:46:30;;;;;;;11.33;2.67;;;;;;;;;;4995485;28;20386;-63
2024/03/21 12:48:55;;;;;;;10.57;3.10;;;;;;;;;;4995356;28;20793;-64
2024/03/21 12:51:20;;;;;;;1.83;1.67;;;;;;;;;;4995363;28;20014;-64
2024/03/21 12:53:46;;;;;;;6.63;4.20;;;;;;;;;;4995322;28;20065;-64
2024/03/21 12:56:12;;;;;;;2.40;1.67;;;;;;;;;;4995316;28;20056;-63
2024/03/21 12:58:37;;;;;;;5.15;2.55;;;;;;;;;;4995479;28;20011;-63
2024/03/21 13:01:02;;;;;;;9.07;2.70;;;;;;;;;;4995224;28;20383;-64
2024/03/21 13:03:28;;;;;;;2.33;2.08;;;;;;;;;;4995134;28;20018;-63
2024/03/21 13:05:53;;;;;;;3.87;1.73;;;;;;;;;;4995655;28;20172;-63
2024/03/21 13:08:18;;;;;;;3.43;2.43;;;;;;;;;;4994966;28;20022;-63
2024/03/21 13:10:43;;;;;;;2.93;2.47;;;;;;;;;;4994978;28;20329;-63
2024/03/21 13:13:08;;;;;;;3.33;1.93;;;;;;;;;;4994953;28;20019;-64
2024/03/21 13:15:34;;;;;;;8.40;2.83;;;;;;;;;;4995186;28;20026;-64
2024/03/21 13:17:59;;;;;;;2.50;1.67;;;;;;;;;;4994869;28;20255;-64
2024/03/21 13:20:26;;;;;;;2.90;2.00;;;;;;;;;;4994786;28;20304;-63
2024/03/21 13:22:51;;;;;;;2.05;1.52;;;;;;;;;;4994742;28;20038;-64
2024/03/21 13:25:19;;;;;;;6.50;2.53;;;;;;;;;;4994040;28;20026;-63
2024/03/21 13:27:44;;;;;;;3.45;1.80;;;;;;;;;;4977286;28;20029;-63
2024/03/21 13:30:10;;;;;;;4.18;2.47;;;;;;;;;;4994668;28;20022;-63
2024/03/21 13:32:35;;;;;;;1.98;1.73;;;;;;;;;;4994833;28;20015;-63
2024/03/21 13:35:00;;;;;;;4.07;2.87;;;;;;;;;;4994802;28;20023;-63
2024/03/21 13:37:25;;;;;;;3.40;2.78;;;;;;;;;;4994500;28;20596;-63
2024/03/21 13:39:51;;;;;;;3.23;2.60;;;;;;;;;;4994522;28;20466;-63
2024/03/21 13:42:16;;;;;;;3.93;1.93;;;;;;;;;;4994427;28;20026;-63
2024/03/21 13:44:41;;;;;;;5.28;2.90;;;;;;;;;;4994667;28;20168;-63
2024/03/21 13:47:06;;;;;;;1.67;1.37;;;;;;;;;;4994303;28;20440;-63
2024/03/21 13:49:32;;;;;;;3.07;2.30;;;;;;;;;;4994575;28;20024;-63
2024/03/21 13:51:57;;;;;;;3.63;1.80;;;;;;;;;;4994554;28;20028;-63
2024/03/21 13:54:22;;;;;;;3.10;2.05;;;;;;;;;;4994323;28;20252;-64
2024/03/21 13:56:48;;;;;;;4.97;3.40;;;;;;;;;;4994252;28;20109;-63
2024/03/21 13:59:13;;;;;;;2.47;1.73;;;;;;;;;;4994151;28;20049;-63
2024/03/21 14:01:39;;;;;;;3.33;2.30;;;;;;;;;;4994219;28;20098;-63
2024/03/21 14:04:04;;;;;;;3.00;2.35;;;;;;;;;;4993969;28;20087;-63
2024/03/21 14:06:29;;;;;;;2.65;1.73;;;;;;;;;;4994771;28;20058;-63
2024/03/21 14:08:55;;;;;;;0.67;0.67;;;;;;;;;;4994277;28;20022;-63
2024/03/21 14:11:20;;;;;;;4.23;1.60;;;;;;;;;;4994041;28;20259;-63
2024/03/21 14:13:50;;;;;;;3.87;2.57;;;;;;;;;;4994040;28;20049;-63
2024/03/21 14:16:15;;;;;;;2.47;2.28;;;;;;;;;;4994214;28;20050;-64
2024/03/21 14:18:41;;;;;;;3.83;2.17;;;;;;;;;;4993908;28;20120;-63
2024/03/21 14:21:06;;;;;;;0.70;0.70;;;;;;;;;;4994192;28;20475;-63
2024/03/21 14:23:32;;;;;;;3.83;2.63;;;;;;;;;;4993997;28;20433;-63
2024/03/21 14:25:58;;;;;;;3.30;1.75;;;;;;;;;;4993833;28;20102;-63
2024/03/21 14:28:24;;;;;;;2.53;1.38;;;;;;;;;;4993789;28;20033;-63
2024/03/21 14:30:49;;;;;;;2.13;1.67;;;;;;;;;;4993841;28;20026;-63
2024/03/21 14:33:14;;;;;;;2.57;1.90;;;;;;;;;;4993807;28;20018;-63
2024/03/21 14:35:40;;;;;;;4.32;2.28;;;;;;;;;;4995442;28;20430;-63
2024/03/21 14:38:06;;;;;;;2.60;1.55;;;;;;;;;;4997784;28;20054;-63
2024/03/21 14:40:32;;;;;;;8.48;2.13;;;;;;;;;;4997773;28;20031;-63